createdAt,value
2022-12-18T00:00:28.416Z,59.75
2022-12-18T00:03:31.090Z,60.88
2022-12-18T00:06:34.089Z,62.28
2022-12-18T00:09:39.797Z,59.08
2022-12-18T00:12:42.976Z,62.53
2022-12-18T00:15:45.551Z,60.75
2022-12-18T00:18:48.225Z,54.97
2022-12-18T00:21:50.804Z,59.00
2022-12-18T00:24:54.693Z,56.83
2022-12-18T00:27:57.263Z,54.47
2022-12-18T00:31:02.611Z,51.20
2022-12-18T00:34:05.311Z,54.67
2022-12-18T00:37:07.843Z,51.65
2022-12-18T00:40:13.440Z,55.00
2022-12-18T00:43:15.009Z,52.95
2022-12-18T00:46:17.653Z,50.63
2022-12-18T00:49:21.157Z,51.20
2022-12-18T00:52:23.721Z,50.55
2022-12-18T00:55:27.760Z,46.63
2022-12-18T00:58:30.322Z,49.17
2022-12-18T01:01:33.525Z,48.78
2022-12-18T01:04:36.373Z,53.97
2022-12-18T01:07:38.937Z,49.80
2022-12-18T01:10:43.349Z,51.58
2022-12-18T01:13:45.880Z,48.70
2022-12-18T01:16:48.455Z,49.08
2022-12-18T01:19:51.067Z,48.10
2022-12-18T01:22:53.625Z,48.38
2022-12-18T01:25:57.567Z,46.63
2022-12-18T01:29:00.340Z,49.97
2022-12-18T01:32:02.999Z,46.30
2022-12-18T01:35:06.670Z,45.47
2022-12-18T01:38:09.187Z,52.75
2022-12-18T01:41:13.060Z,54.05
2022-12-18T01:44:48.940Z,51.28
2022-12-18T01:47:52.184Z,51.28
2022-12-18T01:50:54.758Z,53.58
2022-12-18T01:53:57.349Z,50.60
2022-12-18T01:57:01.848Z,53.50
2022-12-18T02:00:07.547Z,51.22
2022-12-18T02:03:10.235Z,49.97
2022-12-18T02:06:15.542Z,54.72
2022-12-18T02:09:20.487Z,48.65
2022-12-18T02:12:25.339Z,50.90
2022-12-18T02:15:30.437Z,49.38
2022-12-18T02:18:34.743Z,44.58
2022-12-18T02:21:42.470Z,49.70
2022-12-18T02:24:47.289Z,49.80
2022-12-18T02:27:51.438Z,49.08
2022-12-18T02:30:54.108Z,47.78
2022-12-18T02:34:01.939Z,50.00
2022-12-18T02:37:05.835Z,47.70
2022-12-18T02:40:10.009Z,48.80
2022-12-18T02:43:14.851Z,46.83
2022-12-18T02:46:39.104Z,47.85
2022-12-18T02:49:46.513Z,53.03
2022-12-18T02:55:58.982Z,54.40
2022-12-18T02:59:04.287Z,61.58
2022-12-18T03:02:09.914Z,59.08
2022-12-18T03:05:14.446Z,69.00
2022-12-18T03:08:18.137Z,65.72
2022-12-18T03:11:40.700Z,61.20
2022-12-18T03:14:44.571Z,53.15
2022-12-18T03:17:48.444Z,55.25
2022-12-18T03:20:51.233Z,61.85
2022-12-18T03:23:53.752Z,58.95
2022-12-18T03:26:58.295Z,51.28
2022-12-18T03:30:08.243Z,47.83
2022-12-18T03:33:12.599Z,49.17
2022-12-18T03:36:15.112Z,44.70
2022-12-18T03:39:17.621Z,45.13
2022-12-18T03:42:23.279Z,45.53
2022-12-18T03:45:29.136Z,48.03
2022-12-18T03:48:33.201Z,44.72
2022-12-18T03:51:39.694Z,50.78
2022-12-18T03:54:42.303Z,44.90
2022-12-18T03:57:44.902Z,46.33
2022-12-18T04:00:48.816Z,44.95
2022-12-18T04:03:51.396Z,43.78
2022-12-18T04:06:54.001Z,49.22
2022-12-18T04:09:57.921Z,49.88
2022-12-18T04:13:00.534Z,49.30
2022-12-18T04:16:04.839Z,47.67
2022-12-18T04:19:07.401Z,41.72
2022-12-18T04:22:11.133Z,46.97
2022-12-18T04:25:13.739Z,43.63
2022-12-18T04:28:16.306Z,43.85
2022-12-18T04:31:20.220Z,46.83
2022-12-18T04:34:23.120Z,46.60
2022-12-18T04:37:25.668Z,48.33
2022-12-18T04:40:28.230Z,46.88
2022-12-18T04:43:30.842Z,43.35
2022-12-18T04:46:34.812Z,45.00
2022-12-18T04:49:37.441Z,48.47
2022-12-18T04:52:40.019Z,57.92
2022-12-18T04:55:42.584Z,65.80
2022-12-18T04:58:45.953Z,53.28
2022-12-18T05:01:49.989Z,43.42
2022-12-18T05:04:52.643Z,62.20
2022-12-18T05:07:55.175Z,47.40
2022-12-18T05:11:01.622Z,48.63
2022-12-18T05:14:04.212Z,47.60
2022-12-18T05:17:08.092Z,45.97
2022-12-18T05:20:11.753Z,43.08
2022-12-18T05:23:14.331Z,41.50
2022-12-18T05:26:18.567Z,42.17
2022-12-18T05:29:21.144Z,42.55
2022-12-18T05:32:25.089Z,42.90
2022-12-18T05:35:27.672Z,41.13
2022-12-18T05:38:31.001Z,33.75
2022-12-18T05:41:33.564Z,35.17
2022-12-18T05:44:36.143Z,34.05
2022-12-18T05:47:40.070Z,36.60
2022-12-18T05:50:43.461Z,32.58
2022-12-18T05:53:46.081Z,29.35
2022-12-18T05:56:49.065Z,30.40
2022-12-18T05:59:52.028Z,33.72
2022-12-18T06:02:55.964Z,32.63
2022-12-18T06:05:58.583Z,33.85
2022-12-18T06:09:02.224Z,34.58
2022-12-18T06:12:05.160Z,30.50
2022-12-18T06:15:08.756Z,33.60
2022-12-18T06:18:12.608Z,33.60
2022-12-18T06:21:15.136Z,30.48
2022-12-18T06:24:17.701Z,32.90
2022-12-18T06:27:20.220Z,30.65
2022-12-18T06:30:22.738Z,25.67
2022-12-18T06:33:27.855Z,28.77
2022-12-18T06:36:33.272Z,29.60
2022-12-18T06:39:35.781Z,31.85
2022-12-18T06:42:38.304Z,32.15
2022-12-18T06:45:41.385Z,30.33
2022-12-18T06:48:48.277Z,29.45
2022-12-18T06:51:50.806Z,26.98
2022-12-18T06:54:53.384Z,29.90
2022-12-18T06:57:55.953Z,28.70
2022-12-18T07:01:02.154Z,29.90
2022-12-18T07:04:06.299Z,28.40
2022-12-18T07:07:08.817Z,27.10
2022-12-18T07:10:11.460Z,31.02
2022-12-18T07:13:13.981Z,30.50
2022-12-18T07:16:24.274Z,29.48
2022-12-18T07:19:28.981Z,22.13
2022-12-18T07:22:32.547Z,26.25
2022-12-18T07:25:35.800Z,23.15
2022-12-18T07:28:38.508Z,22.77
2022-12-18T07:31:41.451Z,24.67
2022-12-18T07:34:45.580Z,22.05
2022-12-18T07:37:49.811Z,25.85
2022-12-18T07:40:52.333Z,26.10
2022-12-18T07:43:54.860Z,26.10
2022-12-18T07:46:57.367Z,24.52
2022-12-18T07:50:01.269Z,24.83
2022-12-18T07:53:05.727Z,24.58
2022-12-18T07:59:32.213Z,22.30
2022-12-18T08:02:34.849Z,18.70
2022-12-18T08:05:39.328Z,20.15
2022-12-18T08:08:43.035Z,23.80
2022-12-18T08:11:45.661Z,23.00
2022-12-18T08:14:48.199Z,19.90
2022-12-18T08:17:50.754Z,24.38
2022-12-18T08:20:54.747Z,22.73
2022-12-18T08:23:57.961Z,21.13
2022-12-18T08:30:23.304Z,17.58
2022-12-18T08:33:25.988Z,20.15
2022-12-18T08:36:29.906Z,21.23
2022-12-18T08:39:32.468Z,21.52
2022-12-18T08:42:55.620Z,20.20
2022-12-18T08:45:58.436Z,20.73
2022-12-18T08:49:01.056Z,20.05
2022-12-18T08:52:05.400Z,22.08
2022-12-18T08:55:09.532Z,20.98
2022-12-18T08:58:12.066Z,20.33
2022-12-18T09:01:14.976Z,20.15
2022-12-18T09:04:17.705Z,20.35
2022-12-18T09:07:21.634Z,21.20
2022-12-18T09:10:24.163Z,20.17
2022-12-18T09:13:26.729Z,20.77
2022-12-18T09:16:32.245Z,19.50
2022-12-18T09:19:35.412Z,16.98
2022-12-18T09:22:39.260Z,19.50
2022-12-18T09:25:41.845Z,20.75
2022-12-18T09:28:45.003Z,20.98
2022-12-18T09:31:47.565Z,20.17
2022-12-18T09:34:50.149Z,19.50
2022-12-18T09:37:54.017Z,20.17
2022-12-18T09:40:59.577Z,20.95
2022-12-18T09:44:03.251Z,19.00
2022-12-18T09:47:11.682Z,19.88
2022-12-18T09:50:21.591Z,19.67
2022-12-18T09:53:27.825Z,21.25
2022-12-18T09:56:31.126Z,19.88
2022-12-18T09:59:36.568Z,20.30
2022-12-18T10:02:39.288Z,21.58
2022-12-18T10:05:44.340Z,19.83
2022-12-18T10:08:51.121Z,21.13
2022-12-18T10:11:57.289Z,20.38
2022-12-18T10:15:02.731Z,19.48
2022-12-18T10:18:20.290Z,19.88
2022-12-18T10:21:27.072Z,16.58
2022-12-18T10:24:34.826Z,14.88
2022-12-18T10:27:37.333Z,18.15
2022-12-18T10:30:40.073Z,17.60
2022-12-18T10:33:42.654Z,18.40
2022-12-18T10:36:45.232Z,20.95
2022-12-18T10:39:49.431Z,19.70
2022-12-18T10:43:05.198Z,21.00
2022-12-18T10:46:16.461Z,20.38
2022-12-18T10:49:24.512Z,17.50
2022-12-18T10:52:27.467Z,20.58
2022-12-18T10:55:33.679Z,19.05
2022-12-18T10:58:37.140Z,20.33
2022-12-18T11:01:51.058Z,19.25
2022-12-18T11:04:53.963Z,20.90
2022-12-18T11:07:57.104Z,20.63
2022-12-18T11:11:00.984Z,18.30
2022-12-18T11:14:05.226Z,19.67
2022-12-18T11:17:26.747Z,20.35
2022-12-18T11:20:33.559Z,20.90
2022-12-18T11:23:36.513Z,19.93
2022-12-18T11:26:40.901Z,20.10
2022-12-18T11:29:46.704Z,19.15
2022-12-18T11:32:49.517Z,19.42
2022-12-18T11:35:53.164Z,19.35
2022-12-18T11:38:55.829Z,20.10
2022-12-18T11:42:13.316Z,20.40
2022-12-18T11:45:27.998Z,20.52
2022-12-18T11:48:32.238Z,20.25
2022-12-18T11:51:36.521Z,19.08
2022-12-18T11:54:39.089Z,18.25
2022-12-18T11:57:46.385Z,18.48
2022-12-18T12:00:50.819Z,18.58
2022-12-18T12:04:37.218Z,19.40
2022-12-18T12:07:44.187Z,20.67
2022-12-18T12:10:52.881Z,18.65
2022-12-18T12:14:04.366Z,17.48
2022-12-18T12:17:12.244Z,19.63
2022-12-18T12:20:17.817Z,19.02
2022-12-18T12:23:27.814Z,18.20
2022-12-18T12:26:34.825Z,19.92
2022-12-18T12:29:44.905Z,15.85
2022-12-18T12:33:00.122Z,19.27
2022-12-18T12:36:06.301Z,19.63
2022-12-18T12:39:10.275Z,19.10
2022-12-18T12:42:33.800Z,18.75
2022-12-18T12:45:39.392Z,19.90
2022-12-18T12:48:44.556Z,20.48
2022-12-18T12:51:48.021Z,18.88
2022-12-18T12:54:51.830Z,19.45
2022-12-18T12:57:59.697Z,18.73
2022-12-18T13:01:10.555Z,18.00
2022-12-18T13:04:22.713Z,18.88
2022-12-18T13:07:28.057Z,20.23
2022-12-18T13:10:36.191Z,19.92
2022-12-18T13:13:49.633Z,20.25
2022-12-18T13:17:05.612Z,20.05
2022-12-18T13:20:12.275Z,20.25
2022-12-18T13:23:30.390Z,19.38
2022-12-18T13:26:34.175Z,18.42
2022-12-18T13:29:43.816Z,18.83
2022-12-18T13:32:47.906Z,19.15
2022-12-18T13:35:54.954Z,18.58
2022-12-18T13:39:28.855Z,18.92
2022-12-18T13:43:00.357Z,20.08
2022-12-18T13:46:07.992Z,20.70
2022-12-18T13:49:22.485Z,20.33
2022-12-18T13:52:26.381Z,15.27
2022-12-18T13:55:28.946Z,20.27
2022-12-18T13:58:31.548Z,17.63
2022-12-18T14:01:34.260Z,20.63
2022-12-18T14:04:38.567Z,18.60
2022-12-18T14:07:42.924Z,19.05
2022-12-18T14:10:51.930Z,17.25
2022-12-18T14:13:54.571Z,16.45
2022-12-18T14:16:57.192Z,16.20
2022-12-18T14:20:01.450Z,16.00
2022-12-18T14:23:04.070Z,15.98
2022-12-18T14:26:22.222Z,17.52
2022-12-18T14:29:26.988Z,16.17
2022-12-18T14:32:29.505Z,18.77
2022-12-18T14:35:33.480Z,19.13
2022-12-18T14:38:36.849Z,16.33
2022-12-18T14:41:39.376Z,17.83
2022-12-18T14:45:05.085Z,17.75
2022-12-18T14:48:10.835Z,17.63
2022-12-18T14:51:19.299Z,19.00
2022-12-18T14:54:22.071Z,18.90
2022-12-18T14:57:25.628Z,15.63
2022-12-18T15:00:28.238Z,16.58
2022-12-18T15:03:30.890Z,17.75
2022-12-18T15:06:35.964Z,17.15
2022-12-18T15:09:38.732Z,18.88
2022-12-18T15:12:42.902Z,18.35
2022-12-18T15:15:49.876Z,16.58
2022-12-18T15:18:52.484Z,18.75
2022-12-18T15:22:04.457Z,18.17
2022-12-18T15:25:25.833Z,17.42
2022-12-18T15:28:30.110Z,17.40
2022-12-18T15:31:33.087Z,17.02
2022-12-18T15:34:35.862Z,13.75
2022-12-18T15:37:42.686Z,15.40
2022-12-18T15:40:45.196Z,11.48
2022-12-18T15:43:47.733Z,16.10
2022-12-18T15:46:50.391Z,14.63
2022-12-18T15:49:52.961Z,15.02
2022-12-18T15:52:57.096Z,15.32
2022-12-18T15:56:25.949Z,16.10
2022-12-18T15:59:29.393Z,10.80
2022-12-18T16:02:33.497Z,12.82
2022-12-18T16:05:36.384Z,12.95
2022-12-18T16:08:40.266Z,13.52
2022-12-18T16:11:44.538Z,10.93
2022-12-18T16:14:47.169Z,9.30
2022-12-18T16:17:50.186Z,12.30
2022-12-18T16:20:52.788Z,11.38
2022-12-18T16:23:56.686Z,11.05
2022-12-18T16:27:00.402Z,9.35
2022-12-18T16:30:03.025Z,13.05
2022-12-18T16:33:05.560Z,8.50
2022-12-18T16:36:10.279Z,11.02
2022-12-18T16:39:14.149Z,11.07
2022-12-18T16:42:19.694Z,14.63
2022-12-18T16:45:22.249Z,10.18
2022-12-18T16:48:24.824Z,10.10
2022-12-18T16:51:27.399Z,11.70
2022-12-18T16:54:31.362Z,13.43
2022-12-18T16:57:33.901Z,10.88
2022-12-18T17:00:40.661Z,10.57
2022-12-18T17:03:43.568Z,13.30
2022-12-18T17:06:51.600Z,11.95
2022-12-18T17:09:55.480Z,13.00
2022-12-18T17:12:57.996Z,12.57
2022-12-18T17:16:03.744Z,9.85
2022-12-18T17:19:06.291Z,11.65
2022-12-18T17:22:09.433Z,12.40
2022-12-18T17:25:13.289Z,15.57
2022-12-18T17:28:15.849Z,15.30
2022-12-18T17:31:19.603Z,12.15
2022-12-18T17:34:23.242Z,15.05
2022-12-18T17:37:26.272Z,15.63
2022-12-18T17:40:30.188Z,13.38
2022-12-18T17:43:32.848Z,18.33
2022-12-18T17:46:35.417Z,14.43
2022-12-18T17:49:38.059Z,14.07
2022-12-18T17:52:40.629Z,15.55
2022-12-18T17:55:44.551Z,10.75
2022-12-18T17:58:47.961Z,11.43
2022-12-18T18:01:50.762Z,11.13
2022-12-18T18:04:53.426Z,16.02
2022-12-18T18:07:57.064Z,15.65
2022-12-18T18:11:19.106Z,15.55
2022-12-18T18:14:21.744Z,11.00
2022-12-18T18:17:24.343Z,18.45
2022-12-18T18:20:28.501Z,13.93
2022-12-18T18:23:32.670Z,14.60
2022-12-18T18:26:36.588Z,13.85
2022-12-18T18:29:39.194Z,13.02
2022-12-18T18:32:41.705Z,17.88
2022-12-18T18:35:53.932Z,15.20
2022-12-18T18:38:57.048Z,14.20
2022-12-18T18:42:00.916Z,16.80
2022-12-18T18:45:03.500Z,17.17
2022-12-18T18:48:06.675Z,15.80
2022-12-18T18:51:11.692Z,18.25
2022-12-18T18:54:16.450Z,18.48
2022-12-18T18:57:21.323Z,15.05
2022-12-18T19:00:25.312Z,14.20
2022-12-18T19:03:28.089Z,20.30
2022-12-18T19:06:30.762Z,19.60
2022-12-18T19:09:33.780Z,19.35
2022-12-18T19:12:55.290Z,17.15
2022-12-18T19:16:03.862Z,14.52
2022-12-18T19:19:06.745Z,16.65
2022-12-18T19:22:10.930Z,16.52
2022-12-18T19:25:13.458Z,22.67
2022-12-18T19:28:22.345Z,15.15
2022-12-18T19:31:29.190Z,18.00
2022-12-18T19:34:34.479Z,16.60
2022-12-18T19:37:37.060Z,16.88
2022-12-18T19:40:41.549Z,14.07
2022-12-18T19:43:45.558Z,13.35
2022-12-18T19:46:48.081Z,19.02
2022-12-18T19:49:50.704Z,19.67
2022-12-18T19:52:53.354Z,14.30
2022-12-18T19:55:55.988Z,15.13
2022-12-18T19:58:59.928Z,17.13
2022-12-18T20:02:02.654Z,20.95
2022-12-18T20:05:06.010Z,18.65
2022-12-18T20:08:09.873Z,20.90
2022-12-18T20:11:12.537Z,20.33
2022-12-18T20:14:22.993Z,16.33
2022-12-18T20:17:26.528Z,13.32
2022-12-18T20:20:29.437Z,16.58
2022-12-18T20:23:33.214Z,15.52
2022-12-18T20:26:37.312Z,20.10
2022-12-18T20:29:41.356Z,20.55
2022-12-18T20:32:43.933Z,15.40
2022-12-18T20:35:46.537Z,15.95
2022-12-18T20:38:50.067Z,21.23
2022-12-18T20:41:52.688Z,14.95
2022-12-18T20:44:56.572Z,23.65
2022-12-18T20:48:00.849Z,19.02
2022-12-18T20:51:05.568Z,19.98
2022-12-18T20:54:11.595Z,15.20
2022-12-18T20:57:14.525Z,18.30
2022-12-18T21:00:19.282Z,14.13
2022-12-18T21:03:23.986Z,20.35
2022-12-18T21:06:26.639Z,17.48
2022-12-18T21:09:32.313Z,18.30
2022-12-18T21:13:01.533Z,20.58
2022-12-18T21:16:08.752Z,15.57
2022-12-18T21:19:14.054Z,24.23
2022-12-18T21:22:16.771Z,18.73
2022-12-18T21:25:19.421Z,21.67
2022-12-18T21:28:21.956Z,16.90
2022-12-18T21:31:27.824Z,14.77
2022-12-18T21:34:31.082Z,17.42
2022-12-18T21:37:33.606Z,19.23
2022-12-18T21:40:36.137Z,20.05
2022-12-18T21:43:56.877Z,13.13
2022-12-18T21:47:10.855Z,13.77
2022-12-18T21:50:23.363Z,18.02
2022-12-18T21:53:25.905Z,22.77
2022-12-18T21:56:46.556Z,16.67
2022-12-18T21:59:50.451Z,15.40
2022-12-18T22:03:18.258Z,16.80
2022-12-18T22:06:16.908Z,17.55
2022-12-18T22:09:20.305Z,14.80
2022-12-18T22:12:43.547Z,16.13
2022-12-18T22:15:47.373Z,15.20
2022-12-18T22:18:51.408Z,17.67
2022-12-18T22:21:54.116Z,16.95
2022-12-18T22:24:56.831Z,20.15
2022-12-18T22:28:17.129Z,14.65
2022-12-18T22:31:19.754Z,15.80
2022-12-18T22:34:23.741Z,18.83
2022-12-18T22:37:26.340Z,25.38
2022-12-18T22:40:29.156Z,16.08
2022-12-18T22:43:31.672Z,12.50
2022-12-18T22:46:35.389Z,16.13
2022-12-18T22:49:39.628Z,15.68
2022-12-18T22:52:42.291Z,19.70
2022-12-18T22:55:44.822Z,20.98
2022-12-18T22:58:48.481Z,18.00
2022-12-18T23:01:52.982Z,13.85
2022-12-18T23:05:02.763Z,19.08
2022-12-18T23:08:05.731Z,19.15
2022-12-18T23:11:08.327Z,15.90
2022-12-18T23:14:10.886Z,16.20
2022-12-18T23:17:13.434Z,14.75
2022-12-18T23:20:17.541Z,15.07
2022-12-18T23:23:20.239Z,14.88
2022-12-18T23:26:24.170Z,20.30
2022-12-18T23:29:26.698Z,11.88
2022-12-18T23:32:29.249Z,11.77
2022-12-18T23:35:33.161Z,15.73
2022-12-18T23:38:36.093Z,16.05
2022-12-18T23:41:38.629Z,19.80
2022-12-18T23:44:41.202Z,15.85
2022-12-18T23:47:43.721Z,14.65
2022-12-18T23:50:50.161Z,15.10
2022-12-18T23:53:52.670Z,16.92
2022-12-18T23:56:55.234Z,15.50
2022-12-18T23:59:57.753Z,17.27
